Terminal Aerodrome Forecast
Issued by NWS

Home | Current Version | Previous Version | Text Only | Print | Product List | Glossary On
Versions: 1 2 3 4 5 6 7 8 9 10 11 12 13 14 15 16 17 18 19 20 21 22 23 24 25 26 27 28 29 30 31 32 33 34 35 36 37 38 39 40 41 42 43 44 45 46 47 48 49 50
000
FTUS45 KSLC 241543 AAA
TAFPVU
TAF AMD
KPVU 241543Z 2416/2512 30007KT 1SM -SHSN BR BKN015 OVC050
      TEMPO 2416/2417 VRB04KT 4SM -SHSN SCT015 BKN025
     FM241700 VRB05KT P6SM VCSH BKN040
     FM250400 VRB04KT P6SM SCT050 BKN100=

USA.gov is the U.S. government's official web portal to all federal, state and local government web resources and services.